createdAt,value
2022-12-03T00:02:21.812Z,11.60
2022-12-03T00:04:48.529Z,12.43
2022-12-03T00:07:15.582Z,13.77
2022-12-03T00:09:42.901Z,12.40
2022-12-03T00:12:09.462Z,13.20
2022-12-03T00:14:40.041Z,12.98
2022-12-03T00:17:11.377Z,13.10
2022-12-03T00:19:37.864Z,13.32
2022-12-03T00:22:04.391Z,11.75
2022-12-03T00:24:32.160Z,12.45
2022-12-03T00:26:58.650Z,12.75
2022-12-03T00:29:25.720Z,13.00
2022-12-03T00:31:52.236Z,13.43
2022-12-03T00:34:19.338Z,13.25
2022-12-03T00:36:45.935Z,12.88
2022-12-03T00:39:12.511Z,13.45
2022-12-03T00:41:39.041Z,13.65
2022-12-03T00:44:06.365Z,12.57
2022-12-03T00:46:32.917Z,14.10
2022-12-03T00:48:59.485Z,13.77
2022-12-03T00:51:26.461Z,13.95
2022-12-03T00:53:53.494Z,13.65
2022-12-03T00:56:20.534Z,13.75
2022-12-03T00:58:47.097Z,12.90
2022-12-03T01:01:14.249Z,13.68
2022-12-03T01:03:40.933Z,12.32
2022-12-03T01:06:07.552Z,13.02
2022-12-03T01:08:34.066Z,12.68
2022-12-03T01:11:00.639Z,13.38
2022-12-03T01:13:27.411Z,13.43
2022-12-03T01:15:55.037Z,14.10
2022-12-03T01:18:21.654Z,13.18
2022-12-03T01:20:48.644Z,12.40
2022-12-03T01:23:15.720Z,13.52
2022-12-03T01:25:42.760Z,11.65
2022-12-03T01:28:09.897Z,11.73
2022-12-03T01:30:56.491Z,13.93
2022-12-03T01:33:23.733Z,12.55
2022-12-03T01:35:50.255Z,11.95
2022-12-03T01:38:16.770Z,12.25
2022-12-03T01:40:43.845Z,12.18
2022-12-03T01:43:10.381Z,13.30
2022-12-03T01:45:37.451Z,11.52
2022-12-03T01:48:04.278Z,13.40
2022-12-03T01:50:33.184Z,12.98
2022-12-03T01:53:03.173Z,12.77
2022-12-03T01:55:30.492Z,12.95
2022-12-03T01:58:01.892Z,13.20
2022-12-03T02:00:29.826Z,12.98
2022-12-03T02:03:00.649Z,12.90
2022-12-03T02:05:30.259Z,12.00
2022-12-03T02:07:58.037Z,13.32
2022-12-03T02:10:34.744Z,12.05
2022-12-03T02:13:05.131Z,11.80
2022-12-03T02:15:32.290Z,12.13
2022-12-03T02:17:59.281Z,12.73
2022-12-03T02:20:26.376Z,12.23
2022-12-03T02:23:24.556Z,13.52
2022-12-03T02:25:51.182Z,13.95
2022-12-03T02:28:17.742Z,12.05
2022-12-03T02:30:44.775Z,13.48
2022-12-03T02:33:11.349Z,14.18
2022-12-03T02:35:39.533Z,13.75
2022-12-03T02:38:17.292Z,13.52
2022-12-03T02:40:47.181Z,13.48
2022-12-03T02:43:16.491Z,13.95
2022-12-03T02:45:46.770Z,12.60
2022-12-03T02:48:20.030Z,13.60
2022-12-03T02:50:52.066Z,12.48
2022-12-03T02:53:23.522Z,12.60
2022-12-03T02:55:52.409Z,13.07
2022-12-03T02:58:19.474Z,14.75
2022-12-03T03:00:47.150Z,13.15
2022-12-03T03:03:14.813Z,14.20
2022-12-03T03:05:41.601Z,13.95
2022-12-03T03:08:10.118Z,13.35
2022-12-03T03:10:39.155Z,14.23
2022-12-03T03:13:13.877Z,13.65
2022-12-03T03:15:41.944Z,14.98
2022-12-03T03:18:10.234Z,13.38
2022-12-03T03:20:37.376Z,14.15
2022-12-03T03:23:17.916Z,13.63
2022-12-03T03:25:57.452Z,14.45
2022-12-03T03:28:25.014Z,14.77
2022-12-03T03:30:52.311Z,13.48
2022-12-03T03:33:19.140Z,15.05
2022-12-03T03:35:49.355Z,14.35
2022-12-03T03:38:19.319Z,13.85
2022-12-03T03:40:47.171Z,15.90
2022-12-03T03:43:14.245Z,13.93
2022-12-03T03:45:42.101Z,14.43
2022-12-03T03:48:08.681Z,13.52
2022-12-03T03:50:35.760Z,15.75
2022-12-03T03:53:03.288Z,14.88
2022-12-03T03:55:31.120Z,15.45
2022-12-03T03:57:58.037Z,14.27
2022-12-03T04:00:24.739Z,15.57
2022-12-03T04:02:52.981Z,15.75
2022-12-03T04:05:22.187Z,15.85
2022-12-03T04:07:48.824Z,15.95
2022-12-03T04:10:34.305Z,15.07
2022-12-03T04:15:29.296Z,15.60
2022-12-03T04:18:16.950Z,15.50
2022-12-03T04:20:43.514Z,15.75
2022-12-03T04:23:10.887Z,16.33
2022-12-03T04:25:56.200Z,14.45
2022-12-03T04:28:41.308Z,14.95
2022-12-03T04:31:26.535Z,15.30
2022-12-03T04:34:12.478Z,15.85
2022-12-03T04:36:39.405Z,16.70
2022-12-03T04:39:06.380Z,15.38
2022-12-03T04:41:32.919Z,15.27
2022-12-03T04:44:18.134Z,14.98
2022-12-03T04:46:45.142Z,16.92
2022-12-03T04:49:12.205Z,14.98
2022-12-03T04:51:38.898Z,16.55
2022-12-03T04:54:05.661Z,14.98
2022-12-03T04:56:32.203Z,14.82
2022-12-03T04:58:58.684Z,16.67
2022-12-03T05:01:25.782Z,15.93
2022-12-03T05:03:53.286Z,17.15
2022-12-03T05:06:20.282Z,16.15
2022-12-03T05:08:47.315Z,15.82
2022-12-03T05:11:13.894Z,15.82
2022-12-03T05:13:41.285Z,14.98
2022-12-03T05:16:09.608Z,17.15
2022-12-03T05:18:36.595Z,15.60
2022-12-03T05:21:03.348Z,15.65
2022-12-03T05:23:29.993Z,13.95
2022-12-03T05:25:57.052Z,13.52
2022-12-03T05:28:24.321Z,15.55
2022-12-03T05:30:51.673Z,14.45
2022-12-03T05:33:19.101Z,15.63
2022-12-03T05:35:46.119Z,15.05
2022-12-03T05:38:13.261Z,14.38
2022-12-03T05:40:40.290Z,14.60
2022-12-03T05:43:06.815Z,15.73
2022-12-03T05:45:39.435Z,16.33
2022-12-03T05:48:09.187Z,15.98
2022-12-03T05:50:38.304Z,15.65
2022-12-03T05:53:05.669Z,15.98
2022-12-03T05:55:32.463Z,14.70
2022-12-03T05:57:59.584Z,15.15
2022-12-03T06:00:31.540Z,17.30
2022-12-03T06:02:58.579Z,15.70
2022-12-03T06:05:26.408Z,14.77
2022-12-03T06:07:53.763Z,14.82
2022-12-03T06:10:23.353Z,14.32
2022-12-03T06:12:50.400Z,15.18
2022-12-03T06:15:18.147Z,15.70
2022-12-03T06:17:45.014Z,15.80
2022-12-03T06:20:18.429Z,14.32
2022-12-03T06:22:45.858Z,15.73
2022-12-03T06:25:13.452Z,15.18
2022-12-03T06:27:40.025Z,15.77
2022-12-03T06:30:08.835Z,15.70
2022-12-03T06:32:35.958Z,14.45
2022-12-03T06:35:02.525Z,15.15
2022-12-03T06:37:29.051Z,14.63
2022-12-03T06:39:55.580Z,15.18
2022-12-03T06:42:22.107Z,15.07
2022-12-03T06:44:49.095Z,14.85
2022-12-03T06:47:15.609Z,16.20
2022-12-03T06:49:42.593Z,16.20
2022-12-03T06:52:09.535Z,14.05
2022-12-03T06:54:36.061Z,16.00
2022-12-03T06:57:03.145Z,16.45
2022-12-03T06:59:29.816Z,14.73
2022-12-03T07:01:56.448Z,15.52
2022-12-03T07:04:23.021Z,15.98
2022-12-03T07:06:50.066Z,15.52
2022-12-03T07:09:17.184Z,15.68
2022-12-03T07:11:44.243Z,15.23
2022-12-03T07:14:11.455Z,16.05
2022-12-03T07:16:39.177Z,16.63
2022-12-03T07:19:06.986Z,15.05
2022-12-03T07:21:33.912Z,15.85
2022-12-03T07:24:01.205Z,15.65
2022-12-03T07:26:27.781Z,16.23
2022-12-03T07:28:54.486Z,16.45
2022-12-03T07:31:21.630Z,17.02
2022-12-03T07:33:48.267Z,17.42
2022-12-03T07:36:14.873Z,15.82
2022-12-03T07:38:41.446Z,16.90
2022-12-03T07:41:07.932Z,15.05
2022-12-03T07:43:34.552Z,17.08
2022-12-03T07:46:01.128Z,16.45
2022-12-03T07:48:27.970Z,17.75
2022-12-03T07:50:54.624Z,15.25
2022-12-03T07:53:21.784Z,16.15
2022-12-03T07:55:48.330Z,16.80
2022-12-03T07:58:15.385Z,16.70
2022-12-03T08:00:42.041Z,18.05
2022-12-03T08:03:08.586Z,17.08
2022-12-03T08:05:35.652Z,18.58
2022-12-03T08:08:02.298Z,18.30
2022-12-03T08:10:28.884Z,18.88
2022-12-03T08:12:58.962Z,18.63
2022-12-03T08:15:30.196Z,17.90
2022-12-03T08:18:01.560Z,17.92
2022-12-03T08:20:33.810Z,17.63
2022-12-03T08:23:07.263Z,18.23
2022-12-03T08:25:33.878Z,17.55
2022-12-03T08:28:13.316Z,17.85
2022-12-03T08:30:41.766Z,18.85
2022-12-03T08:33:35.504Z,17.45
2022-12-03T08:36:11.796Z,16.65
2022-12-03T08:38:39.230Z,16.33
2022-12-03T08:41:14.113Z,17.58
2022-12-03T08:43:42.889Z,17.08
2022-12-03T08:46:19.383Z,16.10
2022-12-03T08:48:49.060Z,16.77
2022-12-03T08:51:25.532Z,16.55
2022-12-03T08:54:12.053Z,15.63
2022-12-03T08:56:39.290Z,15.85
2022-12-03T08:59:24.421Z,16.67
2022-12-03T09:01:53.411Z,14.48
2022-12-03T09:04:46.228Z,17.17
2022-12-03T09:07:12.854Z,15.65
2022-12-03T09:09:39.914Z,16.48
2022-12-03T09:12:06.784Z,17.00
2022-12-03T09:14:33.272Z,15.38
2022-12-03T09:16:59.972Z,15.13
2022-12-03T09:19:27.797Z,14.02
2022-12-03T09:21:55.166Z,13.80
2022-12-03T09:24:21.731Z,13.95
2022-12-03T09:26:48.424Z,15.25
2022-12-03T09:29:15.675Z,15.00
2022-12-03T09:31:42.374Z,15.60
2022-12-03T09:34:09.293Z,14.55
2022-12-03T09:36:35.922Z,16.10
2022-12-03T09:39:02.949Z,14.52
2022-12-03T09:41:29.432Z,15.25
2022-12-03T09:44:05.325Z,16.30
2022-12-03T09:46:33.776Z,15.32
2022-12-03T09:49:01.312Z,13.93
2022-12-03T09:51:33.212Z,14.25
2022-12-03T09:54:01.921Z,14.70
2022-12-03T09:56:28.761Z,15.82
2022-12-03T09:58:56.273Z,16.23
2022-12-03T10:01:27.887Z,15.07
2022-12-03T10:03:56.554Z,15.20
2022-12-03T10:06:24.216Z,15.73
2022-12-03T10:08:54.514Z,16.38
2022-12-03T10:11:24.420Z,16.25
2022-12-03T10:13:51.616Z,16.52
2022-12-03T10:16:20.819Z,14.98
2022-12-03T10:18:52.073Z,15.75
2022-12-03T10:21:27.383Z,17.65
2022-12-03T10:24:32.973Z,15.77
2022-12-03T10:27:01.615Z,15.93
2022-12-03T10:29:34.690Z,17.48
2022-12-03T10:32:07.556Z,17.13
2022-12-03T10:34:39.892Z,16.77
2022-12-03T10:37:22.693Z,17.42
2022-12-03T10:39:56.374Z,17.00
2022-12-03T10:42:25.006Z,16.88
2022-12-03T10:45:09.587Z,16.65
2022-12-03T10:47:36.357Z,13.80
2022-12-03T10:50:06.308Z,17.33
2022-12-03T10:52:33.021Z,17.17
2022-12-03T10:54:59.618Z,16.80
2022-12-03T10:57:26.703Z,17.17
2022-12-03T10:59:53.377Z,17.13
2022-12-03T11:02:23.423Z,18.17
2022-12-03T11:04:52.183Z,17.48
2022-12-03T11:07:20.766Z,16.77
2022-12-03T11:09:50.322Z,17.63
2022-12-03T11:12:26.113Z,16.85
2022-12-03T11:14:54.042Z,17.98
2022-12-03T11:17:47.232Z,17.33
2022-12-03T11:20:36.254Z,19.25
2022-12-03T11:23:02.854Z,14.90
2022-12-03T11:25:29.931Z,17.52
2022-12-03T11:28:14.788Z,17.38
2022-12-03T11:30:53.853Z,12.43
2022-12-03T11:33:24.824Z,17.13
2022-12-03T11:36:03.165Z,18.42
2022-12-03T11:38:40.847Z,16.85
2022-12-03T11:41:34.779Z,16.10
2022-12-03T11:44:05.389Z,17.23
2022-12-03T11:46:37.810Z,18.48
2022-12-03T11:49:25.750Z,19.45
2022-12-03T11:51:52.658Z,19.40
2022-12-03T11:54:22.238Z,18.98
2022-12-03T11:56:50.749Z,18.90
2022-12-03T11:59:18.475Z,19.58
2022-12-03T12:01:45.408Z,20.40
2022-12-03T12:04:33.472Z,20.58
2022-12-03T12:07:00.874Z,19.70
2022-12-03T12:09:50.766Z,19.88
2022-12-03T12:12:31.963Z,19.80
2022-12-03T12:14:59.681Z,20.52
2022-12-03T12:17:37.369Z,20.20
2022-12-03T12:20:24.565Z,23.05
2022-12-03T12:22:54.756Z,20.45
2022-12-03T12:25:30.837Z,18.98
2022-12-03T12:27:57.555Z,19.65
2022-12-03T12:30:24.150Z,20.08
2022-12-03T12:32:53.061Z,20.67
2022-12-03T12:35:25.277Z,20.80
2022-12-03T12:37:58.923Z,19.35
2022-12-03T12:40:30.417Z,19.80
2022-12-03T12:43:08.497Z,19.95
2022-12-03T12:45:42.864Z,19.80
2022-12-03T12:48:26.426Z,20.95
2022-12-03T12:51:11.140Z,21.05
2022-12-03T12:53:40.070Z,19.15
2022-12-03T12:56:32.825Z,20.77
2022-12-03T12:59:11.597Z,20.95
2022-12-03T13:01:39.122Z,21.02
2022-12-03T13:04:11.860Z,20.90
2022-12-03T13:06:38.869Z,21.40
2022-12-03T13:09:14.857Z,21.75
2022-12-03T13:11:46.836Z,19.08
2022-12-03T13:14:26.234Z,20.08
2022-12-03T13:16:56.044Z,21.63
2022-12-03T13:19:24.160Z,21.02
2022-12-03T13:21:53.673Z,19.15
2022-12-03T13:24:54.637Z,20.77
2022-12-03T13:27:30.163Z,20.88
2022-12-03T13:30:13.726Z,19.17
2022-12-03T13:32:42.094Z,18.60
2022-12-03T13:35:35.992Z,19.77
2022-12-03T13:38:13.460Z,19.58
2022-12-03T13:40:41.535Z,18.80
2022-12-03T13:43:14.421Z,18.80
2022-12-03T13:45:44.281Z,21.05
2022-12-03T13:48:29.350Z,20.58
2022-12-03T13:50:56.594Z,19.08
2022-12-03T13:53:40.395Z,19.75
2022-12-03T13:56:30.169Z,19.13
2022-12-03T13:59:00.141Z,21.33
2022-12-03T14:01:28.165Z,19.55
2022-12-03T14:03:55.223Z,19.52
2022-12-03T14:06:21.846Z,18.33
2022-12-03T14:08:48.755Z,18.20
2022-12-03T14:11:33.962Z,18.55
2022-12-03T14:14:01.070Z,17.33
2022-12-03T14:16:28.234Z,17.42
2022-12-03T14:18:54.752Z,16.17
2022-12-03T14:21:21.873Z,17.63
2022-12-03T14:23:48.466Z,16.45
2022-12-03T14:26:15.310Z,16.98
2022-12-03T14:28:41.881Z,16.88
2022-12-03T14:31:08.466Z,16.77
2022-12-03T14:33:35.107Z,16.75
2022-12-03T14:36:02.695Z,16.45
2022-12-03T14:38:29.753Z,18.63
2022-12-03T14:40:56.337Z,18.85
2022-12-03T14:43:22.921Z,16.00
2022-12-03T14:45:49.543Z,15.95
2022-12-03T14:48:16.137Z,16.92
2022-12-03T14:50:42.662Z,16.65
2022-12-03T14:53:09.221Z,17.25
2022-12-03T14:55:35.785Z,16.77
2022-12-03T14:58:02.404Z,15.25
2022-12-03T15:00:28.996Z,16.55
2022-12-03T15:02:55.567Z,16.08
2022-12-03T15:05:28.299Z,17.42
2022-12-03T15:07:56.092Z,15.68
2022-12-03T15:10:22.759Z,17.00
2022-12-03T15:12:49.511Z,16.73
2022-12-03T15:15:16.580Z,16.10
2022-12-03T15:17:45.682Z,15.98
2022-12-03T15:20:12.869Z,17.35
2022-12-03T15:22:39.397Z,16.02
2022-12-03T15:25:07.787Z,17.65
2022-12-03T15:27:34.370Z,17.67
2022-12-03T15:30:00.919Z,17.05
2022-12-03T15:32:27.685Z,17.92
2022-12-03T15:34:54.226Z,19.17
2022-12-03T15:37:20.791Z,18.77
2022-12-03T15:39:48.894Z,19.65
2022-12-03T15:42:16.140Z,22.17
2022-12-03T15:44:43.220Z,21.30
2022-12-03T15:47:10.205Z,22.08
2022-12-03T15:49:36.771Z,21.35
2022-12-03T15:52:04.568Z,21.95
2022-12-03T15:54:31.626Z,23.20
2022-12-03T15:56:58.119Z,20.92
2022-12-03T15:59:25.257Z,22.60
2022-12-03T16:01:51.866Z,22.90
2022-12-03T16:04:18.472Z,22.50
2022-12-03T16:06:45.021Z,22.67
2022-12-03T16:09:11.812Z,22.95
2022-12-03T16:11:38.339Z,22.80
2022-12-03T16:14:04.895Z,21.30
2022-12-03T16:16:32.079Z,21.58
2022-12-03T16:18:58.717Z,21.95
2022-12-03T16:21:27.336Z,22.58
2022-12-03T16:23:54.675Z,21.42
2022-12-03T16:26:21.713Z,23.58
2022-12-03T16:28:48.273Z,21.65
2022-12-03T16:31:14.880Z,23.00
2022-12-03T16:33:41.425Z,22.50
2022-12-03T16:36:08.413Z,23.60
2022-12-03T16:38:34.999Z,20.98
2022-12-03T16:41:02.201Z,20.83
2022-12-03T16:43:29.248Z,18.85
2022-12-03T16:46:02.921Z,20.45
2022-12-03T16:48:30.198Z,19.50
2022-12-03T16:50:56.874Z,19.13
2022-12-03T16:53:23.483Z,17.73
2022-12-03T16:55:50.030Z,17.55
2022-12-03T16:58:18.774Z,16.67
2022-12-03T17:00:45.746Z,18.73
2022-12-03T17:03:12.399Z,16.05
2022-12-03T17:05:39.014Z,17.13
2022-12-03T17:08:05.626Z,16.73
2022-12-03T17:10:32.531Z,17.45
2022-12-03T17:13:14.498Z,18.48
2022-12-03T17:15:41.508Z,18.52
2022-12-03T17:18:24.034Z,17.83
2022-12-03T17:20:50.574Z,17.30
2022-12-03T17:23:17.750Z,19.42
2022-12-03T17:25:44.359Z,17.30
2022-12-03T17:28:10.890Z,18.70
2022-12-03T17:30:37.955Z,18.40
2022-12-03T17:33:05.140Z,17.02
2022-12-03T17:35:32.267Z,17.85
2022-12-03T17:37:58.870Z,18.80
2022-12-03T17:40:25.418Z,17.40
2022-12-03T17:42:51.948Z,18.10
2022-12-03T17:45:18.509Z,17.85
2022-12-03T17:47:45.085Z,17.70
2022-12-03T17:50:12.108Z,18.02
2022-12-03T17:52:38.820Z,19.02
2022-12-03T17:55:18.054Z,18.38
2022-12-03T17:57:50.406Z,19.95
2022-12-03T18:00:17.306Z,21.20
2022-12-03T18:02:43.845Z,19.70
2022-12-03T18:05:10.468Z,19.60
2022-12-03T18:07:37.038Z,21.67
2022-12-03T18:10:04.491Z,19.63
2022-12-03T18:12:31.154Z,21.35
2022-12-03T18:14:58.140Z,21.95
2022-12-03T18:17:25.356Z,20.63
2022-12-03T18:19:52.239Z,21.38
2022-12-03T18:22:19.712Z,20.40
2022-12-03T18:24:50.246Z,20.23
2022-12-03T18:27:18.394Z,21.50
2022-12-03T18:29:44.974Z,20.55
2022-12-03T18:32:27.890Z,19.98
2022-12-03T18:34:56.007Z,21.52
2022-12-03T18:37:25.848Z,21.35
2022-12-03T18:39:52.651Z,21.67
2022-12-03T18:42:21.761Z,20.42
2022-12-03T18:44:50.747Z,22.25
2022-12-03T18:47:23.113Z,23.25
2022-12-03T18:49:50.547Z,22.13
2022-12-03T18:52:19.639Z,22.10
2022-12-03T18:54:47.200Z,21.95
2022-12-03T18:57:14.119Z,21.95
2022-12-03T18:59:40.735Z,21.40
2022-12-03T19:02:08.242Z,22.90
2022-12-03T19:04:34.873Z,20.40
2022-12-03T19:07:03.379Z,20.05
2022-12-03T19:09:30.026Z,19.90
2022-12-03T19:11:57.031Z,21.38
2022-12-03T19:14:23.657Z,19.55
2022-12-03T19:16:50.452Z,21.40
2022-12-03T19:19:17.306Z,22.38
2022-12-03T19:21:44.364Z,20.65
2022-12-03T19:24:26.267Z,21.30
2022-12-03T19:26:55.485Z,20.65
2022-12-03T19:29:23.129Z,20.92
2022-12-03T19:31:51.477Z,21.65
2022-12-03T19:34:18.787Z,22.88
2022-12-03T19:36:45.874Z,21.48
2022-12-03T19:39:12.501Z,20.58
2022-12-03T19:41:41.276Z,20.98
2022-12-03T19:44:11.009Z,20.77
2022-12-03T19:46:37.873Z,20.67
2022-12-03T19:49:04.921Z,21.40
2022-12-03T19:51:35.014Z,20.38
2022-12-03T19:54:06.829Z,19.58
2022-12-03T19:56:34.132Z,19.02
2022-12-03T19:59:01.047Z,21.17
2022-12-03T20:01:30.125Z,19.88
2022-12-03T20:03:58.556Z,17.08
2022-12-03T20:06:28.264Z,19.48
2022-12-03T20:09:00.642Z,18.27
2022-12-03T20:11:29.951Z,21.02
2022-12-03T20:14:02.563Z,19.15
2022-12-03T20:16:31.292Z,19.52
2022-12-03T20:19:04.240Z,20.10
2022-12-03T20:21:33.194Z,18.45
2022-12-03T20:23:59.834Z,18.10
2022-12-03T20:26:27.671Z,18.85
2022-12-03T20:28:56.239Z,18.10
2022-12-03T20:31:25.305Z,18.70
2022-12-03T20:33:55.664Z,19.38
2022-12-03T20:36:25.293Z,17.58
2022-12-03T20:38:56.239Z,18.92
2022-12-03T20:41:23.033Z,17.73
2022-12-03T20:43:50.320Z,18.60
2022-12-03T20:46:19.895Z,18.52
2022-12-03T20:48:47.000Z,18.75
2022-12-03T20:51:19.538Z,18.63
2022-12-03T20:53:46.436Z,17.73
2022-12-03T20:56:22.419Z,20.60
2022-12-03T20:58:50.149Z,19.08
2022-12-03T21:01:22.610Z,20.05
2022-12-03T21:03:50.195Z,19.35
2022-12-03T21:06:17.090Z,19.10
2022-12-03T21:08:44.312Z,17.13
2022-12-03T21:11:13.566Z,18.95
2022-12-03T21:13:41.639Z,19.17
2022-12-03T21:16:11.016Z,18.05
2022-12-03T21:18:38.894Z,17.73
2022-12-03T21:21:06.885Z,17.27
2022-12-03T21:23:34.969Z,18.45
2022-12-03T21:26:07.897Z,18.58
2022-12-03T21:28:34.898Z,20.88
2022-12-03T21:31:03.734Z,18.35
2022-12-03T21:33:31.090Z,19.45
2022-12-03T21:35:59.051Z,16.85
2022-12-03T21:38:26.913Z,18.23
2022-12-03T21:40:54.198Z,19.23
2022-12-03T21:43:21.293Z,18.73
2022-12-03T21:45:48.444Z,19.15
2022-12-03T21:48:15.831Z,18.35
2022-12-03T21:50:43.405Z,19.45
2022-12-03T21:53:10.629Z,20.27
2022-12-03T21:55:41.380Z,17.88
2022-12-03T21:58:08.773Z,17.83
2022-12-03T22:00:36.068Z,21.75
2022-12-03T22:03:02.723Z,20.27
2022-12-03T22:05:29.399Z,21.00
2022-12-03T22:07:58.845Z,18.75
2022-12-03T22:10:25.356Z,21.30
2022-12-03T22:12:51.900Z,21.92
2022-12-03T22:15:19.768Z,20.50
2022-12-03T22:17:46.844Z,21.40
2022-12-03T22:20:13.481Z,21.63
2022-12-03T22:22:40.389Z,22.20
2022-12-03T22:25:07.305Z,20.85
2022-12-03T22:27:34.952Z,20.73
2022-12-03T22:30:02.401Z,22.23
2022-12-03T22:32:28.979Z,21.60
2022-12-03T22:34:56.037Z,21.05
2022-12-03T22:37:22.662Z,21.80
2022-12-03T22:39:49.212Z,21.27
2022-12-03T22:42:16.395Z,20.70
2022-12-03T22:44:43.917Z,20.85
2022-12-03T22:47:10.936Z,20.35
2022-12-03T22:49:37.403Z,21.08
2022-12-03T22:52:04.054Z,22.55
2022-12-03T22:54:30.604Z,20.30
2022-12-03T22:56:57.646Z,23.02
2022-12-03T22:59:24.249Z,25.00
2022-12-03T23:01:51.358Z,22.77
2022-12-03T23:04:18.011Z,20.33
2022-12-03T23:06:44.640Z,20.75
2022-12-03T23:09:12.158Z,19.98
2022-12-03T23:11:39.195Z,21.33
2022-12-03T23:14:05.819Z,20.75
2022-12-03T23:16:33.809Z,22.50
2022-12-03T23:19:01.776Z,22.27
2022-12-03T23:21:31.544Z,21.95
2022-12-03T23:23:59.429Z,20.77
2022-12-03T23:26:26.845Z,21.00
2022-12-03T23:28:54.201Z,23.08
2022-12-03T23:31:30.062Z,20.95
2022-12-03T23:33:57.895Z,18.38
2022-12-03T23:36:26.564Z,21.98
2022-12-03T23:38:54.606Z,21.98
2022-12-03T23:41:23.196Z,21.42
2022-12-03T23:43:49.893Z,20.77
2022-12-03T23:46:19.598Z,20.65
2022-12-03T23:48:46.254Z,21.13
2022-12-03T23:51:16.599Z,21.17
2022-12-03T23:53:43.217Z,21.67
2022-12-03T23:56:13.695Z,22.10
2022-12-03T23:58:40.559Z,21.17
